PWSweather.com
Personal Weather Stations
Station Observations
WISCHPK61
Green Bay Schmitt Park, Green Bay, WI 54311

Green Bay Schmitt ParkGreen Bay, WI 54311

Lat: 44.514277, Lon: -87.935067

Elevation: 735

Station Type: Acu Rite Pro Weather Center model 02032C

http://greenbayweathercam.com

High Low Average
Temperature 79.3°F26.3°C 62.4°F16.9°C 70.8°F21.6°C
Dew Point 79.0°F26.1°C 61.8°F16.6°C 69.7°F20.9°C
Winds 1.2 mph 1.9 kmh Calm Calm Calm SCalm S
Wind Gusts 3.5 mph5.6 kmh -- --
Humidity 99% 84% 96%
Pressure 29.34 in993.6 mb 29.24 in990.2 mb -
Precipitation 1.87 in47.5 mm - -
Hour Temp Dew Point Humidity Winds Wind Gusts Pressure Precip Precip Rate Daily Precip Total
12:00 AM 61.9°F16.6°C 61.6°F16.4°C 99% 1.2 mph SW1.9 kmh SW 3.5 mph5.6 kmh 29.29 in991.9 mb - 0.00 in0.0 mm 0.00 in0.0 mm
01:00 AM 62.4°F16.9°C 61.8°F16.6°C 98% Calm Calm -- 29.32 in992.9 mb - 0.24 in6.1 mm 0.24 in6.1 mm
02:00 AM 63.9°F17.7°C 63.6°F17.6°C 99% Calm Calm -- 29.29 in991.9 mb - 0.03 in0.8 mm 0.27 in6.9 mm
03:00 AM 64.8°F18.2°C 64.5°F18.1°C 99% Calm Calm 1.2 mph1.9 kmh 29.27 in991.2 mb - 0.01 in0.3 mm 0.28 in7.1 mm
04:00 AM 65.3°F18.5°C 64.1°F17.8°C 96% Calm Calm -- 29.27 in991.2 mb - 0.33 in8.4 mm 0.61 in15.5 mm
05:00 AM 65.3°F18.5°C 64.4°F18.0°C 97% Calm Calm -- 29.25 in990.5 mb - 0.54 in13.7 mm 1.14 in29.0 mm
06:00 AM 65.3°F18.5°C 64.7°F18.2°C 98% Calm Calm 3.5 mph5.6 kmh 29.26 in990.9 mb - 0.04 in1.0 mm 1.18 in30.0 mm
07:00 AM 65.8°F18.8°C 64.0°F17.8°C 94% Calm Calm -- 29.24 in990.2 mb - 0.13 in3.3 mm 1.31 in33.3 mm
08:00 AM 65.7°F18.7°C 65.4°F18.6°C 99% Calm Calm -- 29.28 in991.5 mb - 0.49 in12.4 mm 1.80 in45.7 mm
09:00 AM 66.6°F19.2°C 66.3°F19.1°C 99% Calm Calm -- 29.27 in991.2 mb - 0.07 in1.8 mm 1.87 in47.5 mm
10:00 AM 68.7°F20.4°C 63.7°F17.6°C 84% Calm Calm -- 29.27 in991.2 mb - 0.00 in0.0 mm 1.87 in47.5 mm
11:00 AM 70.5°F21.4°C 70.2°F21.2°C 99% Calm Calm -- 29.25 in990.5 mb - 0.00 in0.0 mm 1.87 in47.5 mm
12:00 PM 72.3°F22.4°C 72.0°F22.2°C 99% Calm Calm -- 29.24 in990.2 mb - 0.00 in0.0 mm 1.87 in47.5 mm
01:00 PM 75.4°F24.1°C 75.1°F23.9°C 99% Calm Calm -- 29.24 in990.2 mb - 0.00 in0.0 mm 1.87 in47.5 mm
02:00 PM 79.2°F26.2°C 78.9°F26.1°C 99% Calm Calm -- 29.25 in990.5 mb - 0.00 in0.0 mm 1.87 in47.5 mm
03:00 PM 79.3°F26.3°C 79.0°F26.1°C 99% 1.2 mph WSW1.9 kmh WSW 1.2 mph1.9 kmh 29.25 in990.5 mb - 0.00 in0.0 mm 1.87 in47.5 mm
04:00 PM 79.0°F26.1°C 78.7°F25.9°C 99% Calm Calm -- 29.25 in990.5 mb - 0.00 in0.0 mm 1.87 in47.5 mm
05:00 PM 79.2°F26.2°C 73.9°F23.3°C 84% Calm Calm -- 29.25 in990.5 mb - 0.00 in0.0 mm 1.87 in47.5 mm
06:00 PM 78.4°F25.8°C 78.1°F25.6°C 99% Calm Calm -- 29.27 in991.2 mb - 0.00 in0.0 mm 1.87 in47.5 mm
07:00 PM 75.9°F24.4°C 73.1°F22.8°C 91% Calm Calm -- 29.27 in991.2 mb - 0.00 in0.0 mm 1.87 in47.5 mm
08:00 PM 73.7°F23.2°C 73.4°F23.0°C 99% Calm Calm -- 29.29 in991.9 mb - 0.00 in0.0 mm 1.87 in47.5 mm
09:00 PM 72.1°F22.3°C 68.3°F20.2°C 88% Calm Calm -- 29.30 in992.2 mb - 0.00 in0.0 mm 1.87 in47.5 mm
10:00 PM 71.1°F21.7°C 70.8°F21.6°C 99% Calm Calm -- 29.32 in992.9 mb - 0.00 in0.0 mm 1.87 in47.5 mm
11:00 PM 70.2°F21.2°C 69.9°F21.1°C 99% Calm Calm -- 29.32 in992.9 mb - 0.00 in0.0 mm 1.87 in47.5 mm